<?xml version="1.0" encoding="UTF-8" standalone="no" ?>
<gpx xmlns="http://www.topografix.com/GPX/1/1" xmlns:xsi="http://www.w3.org/2001/XMLSchema-instance" xsi:schemaLocation="http://www.topografix.com/GPX/1/1 http://www.topografix.com/GPX/1/1/gpx.xsd" version="1.1" creator="VisuGPX - https://www.visugpx.com">
  <metadata>
    <name>Barbaira / Capendu </name>
    <desc><![CDATA[Petit décrassage avant le printemps]]></desc>
  </metadata>
  <trk>
    <name><![CDATA[ACTIVE LOG103012]]></name>
    <trkseg>
      <trkpt lat="43.18267" lon="2.51123">
        <ele>104.42</ele>
        <time>2012-03-11T09:30:10Z</time>
      </trkpt>
      <trkpt lat="43.18267" lon="2.51123">
        <ele>104.42</ele>
        <time>2012-03-11T09:30:12Z</time>
      </trkpt>
      <trkpt lat="43.18267" lon="2.51123">
        <ele>100.818</ele>
        <time>2012-03-11T09:30:13Z</time>
      </trkpt>
      <trkpt lat="43.18267" lon="2.51123">
        <ele>98.348</ele>
        <time>2012-03-11T09:30:16Z</time>
      </trkpt>
      <trkpt lat="43.18267" lon="2.51123">
        <ele>102.362</ele>
        <time>2012-03-11T09:30:18Z</time>
      </trkpt>
      <trkpt lat="43.18267" lon="2.51123">
        <ele>100.315</ele>
        <time>2012-03-11T09:30:19Z</time>
      </trkpt>
    </trkseg>
  </trk>
  <trk>
    <name><![CDATA[ACTIVE LOG103025]]></name>
    <trkseg>
      <trkpt lat="43.18267" lon="2.51123">
        <ele>99.045</ele>
        <time>2012-03-11T09:30:23Z</time>
      </trkpt>
      <trkpt lat="43.18267" lon="2.51123">
        <ele>99.045</ele>
        <time>2012-03-11T09:30:24Z</time>
      </trkpt>
      <trkpt lat="43.18267" lon="2.51123">
        <ele>100.53</ele>
        <time>2012-03-11T09:30:26Z</time>
      </trkpt>
      <trkpt lat="43.18266" lon="2.51129">
        <ele>100.3</ele>
        <time>2012-03-11T09:30:30Z</time>
      </trkpt>
      <trkpt lat="43.18239" lon="2.51184">
        <ele>100.599</ele>
        <time>2012-03-11T09:30:46Z</time>
      </trkpt>
      <trkpt lat="43.18229" lon="2.51204">
        <ele>99.541</ele>
        <time>2012-03-11T09:30:52Z</time>
      </trkpt>
      <trkpt lat="43.18186" lon="2.51204">
        <ele>101.392</ele>
        <time>2012-03-11T09:31:09Z</time>
      </trkpt>
      <trkpt lat="43.18182" lon="2.51204">
        <ele>102.873</ele>
        <time>2012-03-11T09:31:11Z</time>
      </trkpt>
      <trkpt lat="43.18177" lon="2.51226">
        <ele>103.894</ele>
        <time>2012-03-11T09:31:19Z</time>
      </trkpt>
      <trkpt lat="43.18166" lon="2.51291">
        <ele>103.944</ele>
        <time>2012-03-11T09:31:33Z</time>
      </trkpt>
      <trkpt lat="43.18177" lon="2.51347">
        <ele>99.947</ele>
        <time>2012-03-11T09:31:39Z</time>
      </trkpt>
      <trkpt lat="43.18182" lon="2.51377">
        <ele>96.277</ele>
        <time>2012-03-11T09:31:42Z</time>
      </trkpt>
      <trkpt lat="43.18185" lon="2.51394">
        <ele>94.937</ele>
        <time>2012-03-11T09:31:44Z</time>
      </trkpt>
      <trkpt lat="43.18189" lon="2.51415">
        <ele>96.992</ele>
        <time>2012-03-11T09:31:47Z</time>
      </trkpt>
      <trkpt lat="43.18226" lon="2.51458">
        <ele>100.344</ele>
        <time>2012-03-11T09:31:55Z</time>
      </trkpt>
      <trkpt lat="43.18228" lon="2.51468">
        <ele>101.231</ele>
        <time>2012-03-11T09:31:57Z</time>
      </trkpt>
      <trkpt lat="43.18236" lon="2.51495">
        <ele>104.68</ele>
        <time>2012-03-11T09:32:03Z</time>
      </trkpt>
      <trkpt lat="43.18248" lon="2.51549">
        <ele>101.266</ele>
        <time>2012-03-11T09:32:12Z</time>
      </trkpt>
      <trkpt lat="43.1825" lon="2.51558">
        <ele>97.779</ele>
        <time>2012-03-11T09:32:13Z</time>
      </trkpt>
      <trkpt lat="43.18258" lon="2.51587">
        <ele>95.534</ele>
        <time>2012-03-11T09:32:16Z</time>
      </trkpt>
      <trkpt lat="43.18283" lon="2.51666">
        <ele>90.462</ele>
        <time>2012-03-11T09:32:23Z</time>
      </trkpt>
      <trkpt lat="43.18299" lon="2.51742">
        <ele>90.348</ele>
        <time>2012-03-11T09:32:29Z</time>
      </trkpt>
      <trkpt lat="43.18304" lon="2.51785">
        <ele>88.348</ele>
        <time>2012-03-11T09:32:32Z</time>
      </trkpt>
      <trkpt lat="43.1831" lon="2.51829">
        <ele>84.917</ele>
        <time>2012-03-11T09:32:35Z</time>
      </trkpt>
      <trkpt lat="43.18319" lon="2.51961">
        <ele>81.592</ele>
        <time>2012-03-11T09:32:45Z</time>
      </trkpt>
      <trkpt lat="43.18324" lon="2.51984">
        <ele>81.262</ele>
        <time>2012-03-11T09:32:48Z</time>
      </trkpt>
      <trkpt lat="43.18338" lon="2.5202">
        <ele>81.762</ele>
        <time>2012-03-11T09:32:56Z</time>
      </trkpt>
      <trkpt lat="43.18339" lon="2.52042">
        <ele>81.533</ele>
        <time>2012-03-11T09:33:00Z</time>
      </trkpt>
      <trkpt lat="43.18337" lon="2.52052">
        <ele>81.927</ele>
        <time>2012-03-11T09:33:02Z</time>
      </trkpt>
      <trkpt lat="43.18325" lon="2.52119">
        <ele>82.698</ele>
        <time>2012-03-11T09:33:14Z</time>
      </trkpt>
      <trkpt lat="43.18312" lon="2.52254">
        <ele>84.252</ele>
        <time>2012-03-11T09:33:37Z</time>
      </trkpt>
      <trkpt lat="43.18299" lon="2.52381">
        <ele>84.397</ele>
        <time>2012-03-11T09:33:55Z</time>
      </trkpt>
      <trkpt lat="43.18295" lon="2.52504">
        <ele>84.71</ele>
        <time>2012-03-11T09:34:13Z</time>
      </trkpt>
      <trkpt lat="43.18289" lon="2.52628">
        <ele>86.881</ele>
        <time>2012-03-11T09:34:32Z</time>
      </trkpt>
      <trkpt lat="43.18288" lon="2.52671">
        <ele>90.853</ele>
        <time>2012-03-11T09:34:39Z</time>
      </trkpt>
      <trkpt lat="43.18288" lon="2.52677">
        <ele>90.918</ele>
        <time>2012-03-11T09:34:40Z</time>
      </trkpt>
      <trkpt lat="43.18286" lon="2.52689">
        <ele>87.38</ele>
        <time>2012-03-11T09:34:42Z</time>
      </trkpt>
      <trkpt lat="43.18285" lon="2.52696">
        <ele>87.874</ele>
        <time>2012-03-11T09:34:43Z</time>
      </trkpt>
      <trkpt lat="43.18265" lon="2.52836">
        <ele>85.746</ele>
        <time>2012-03-11T09:35:01Z</time>
      </trkpt>
      <trkpt lat="43.18217" lon="2.53">
        <ele>84.571</ele>
        <time>2012-03-11T09:35:21Z</time>
      </trkpt>
      <trkpt lat="43.182" lon="2.53133">
        <ele>85.683</ele>
        <time>2012-03-11T09:35:38Z</time>
      </trkpt>
      <trkpt lat="43.18179" lon="2.53293">
        <ele>86.85</ele>
        <time>2012-03-11T09:35:59Z</time>
      </trkpt>
      <trkpt lat="43.18177" lon="2.53327">
        <ele>87.559</ele>
        <time>2012-03-11T09:36:04Z</time>
      </trkpt>
      <trkpt lat="43.18178" lon="2.53382">
        <ele>89.838</ele>
        <time>2012-03-11T09:36:12Z</time>
      </trkpt>
      <trkpt lat="43.18178" lon="2.53394">
        <ele>90.625</ele>
        <time>2012-03-11T09:36:14Z</time>
      </trkpt>
      <trkpt lat="43.18177" lon="2.53429">
        <ele>95.27</ele>
        <time>2012-03-11T09:36:21Z</time>
      </trkpt>
      <trkpt lat="43.18177" lon="2.53434">
        <ele>95.268</ele>
        <time>2012-03-11T09:36:22Z</time>
      </trkpt>
      <trkpt lat="43.18175" lon="2.53455">
        <ele>98.462</ele>
        <time>2012-03-11T09:36:27Z</time>
      </trkpt>
      <trkpt lat="43.18174" lon="2.53459">
        <ele>98.393</ele>
        <time>2012-03-11T09:36:28Z</time>
      </trkpt>
      <trkpt lat="43.18163" lon="2.53535">
        <ele>99.151</ele>
        <time>2012-03-11T09:36:44Z</time>
      </trkpt>
      <trkpt lat="43.18148" lon="2.53643">
        <ele>95.727</ele>
        <time>2012-03-11T09:36:59Z</time>
      </trkpt>
      <trkpt lat="43.18142" lon="2.53681">
        <ele>93.874</ele>
        <time>2012-03-11T09:37:03Z</time>
      </trkpt>
      <trkpt lat="43.18137" lon="2.53699">
        <ele>93.168</ele>
        <time>2012-03-11T09:37:06Z</time>
      </trkpt>
      <trkpt lat="43.18123" lon="2.53708">
        <ele>93.077</ele>
        <time>2012-03-11T09:37:10Z</time>
      </trkpt>
      <trkpt lat="43.18072" lon="2.53741">
        <ele>95.475</ele>
        <time>2012-03-11T09:37:27Z</time>
      </trkpt>
      <trkpt lat="43.18054" lon="2.53825">
        <ele>92.547</ele>
        <time>2012-03-11T09:37:40Z</time>
      </trkpt>
      <trkpt lat="43.18042" lon="2.53878">
        <ele>89.416</ele>
        <time>2012-03-11T09:37:46Z</time>
      </trkpt>
      <trkpt lat="43.18039" lon="2.53893">
        <ele>87.908</ele>
        <time>2012-03-11T09:37:48Z</time>
      </trkpt>
      <trkpt lat="43.18056" lon="2.53919">
        <ele>88.332</ele>
        <time>2012-03-11T09:37:56Z</time>
      </trkpt>
      <trkpt lat="43.1806" lon="2.53919">
        <ele>88.059</ele>
        <time>2012-03-11T09:37:57Z</time>
      </trkpt>
      <trkpt lat="43.18082" lon="2.53951">
        <ele>88.272</ele>
        <time>2012-03-11T09:38:05Z</time>
      </trkpt>
      <trkpt lat="43.18076" lon="2.53966">
        <ele>88.546</ele>
        <time>2012-03-11T09:38:08Z</time>
      </trkpt>
      <trkpt lat="43.18057" lon="2.54">
        <ele>92.607</ele>
        <time>2012-03-11T09:38:20Z</time>
      </trkpt>
      <trkpt lat="43.18051" lon="2.54013">
        <ele>94.448</ele>
        <time>2012-03-11T09:38:26Z</time>
      </trkpt>
      <trkpt lat="43.1804" lon="2.54036">
        <ele>98.087</ele>
        <time>2012-03-11T09:38:37Z</time>
      </trkpt>
      <trkpt lat="43.18009" lon="2.54055">
        <ele>98.87</ele>
        <time>2012-03-11T09:38:54Z</time>
      </trkpt>
      <trkpt lat="43.17982" lon="2.54049">
        <ele>102.302</ele>
        <time>2012-03-11T09:39:07Z</time>
      </trkpt>
      <trkpt lat="43.17974" lon="2.54055">
        <ele>102.377</ele>
        <time>2012-03-11T09:39:12Z</time>
      </trkpt>
      <trkpt lat="43.17949" lon="2.54055">
        <ele>104.473</ele>
        <time>2012-03-11T09:39:27Z</time>
      </trkpt>
      <trkpt lat="43.1793" lon="2.54012">
        <ele>105.24</ele>
        <time>2012-03-11T09:39:44Z</time>
      </trkpt>
      <trkpt lat="43.17923" lon="2.54001">
        <ele>100.545</ele>
        <time>2012-03-11T09:39:55Z</time>
      </trkpt>
      <trkpt lat="43.17923" lon="2.54001">
        <ele>105.709</ele>
        <time>2012-03-11T09:39:59Z</time>
      </trkpt>
      <trkpt lat="43.17923" lon="2.54001">
        <ele>102.078</ele>
        <time>2012-03-11T09:40:00Z</time>
      </trkpt>
      <trkpt lat="43.17923" lon="2.54001">
        <ele>106.025</ele>
        <time>2012-03-11T09:40:10Z</time>
      </trkpt>
      <trkpt lat="43.17923" lon="2.54001">
        <ele>102.159</ele>
        <time>2012-03-11T09:40:11Z</time>
      </trkpt>
      <trkpt lat="43.17923" lon="2.54001">
        <ele>105.186</ele>
        <time>2012-03-11T09:40:26Z</time>
      </trkpt>
      <trkpt lat="43.17923" lon="2.54001">
        <ele>102.54</ele>
        <time>2012-03-11T09:40:28Z</time>
      </trkpt>
      <trkpt lat="43.17923" lon="2.54001">
        <ele>102.293</ele>
        <time>2012-03-11T09:40:38Z</time>
      </trkpt>
      <trkpt lat="43.17923" lon="2.54001">
        <ele>102.177</ele>
        <time>2012-03-11T09:40:57Z</time>
      </trkpt>
      <trkpt lat="43.17923" lon="2.54001">
        <ele>106.252</ele>
        <time>2012-03-11T09:41:11Z</time>
      </trkpt>
      <trkpt lat="43.17923" lon="2.54001">
        <ele>103.637</ele>
        <time>2012-03-11T09:41:12Z</time>
      </trkpt>
      <trkpt lat="43.17923" lon="2.54001">
        <ele>102.313</ele>
        <time>2012-03-11T09:41:35Z</time>
      </trkpt>
      <trkpt lat="43.17923" lon="2.54001">
        <ele>103.24</ele>
        <time>2012-03-11T09:41:41Z</time>
      </trkpt>
      <trkpt lat="43.17923" lon="2.54001">
        <ele>103.237</ele>
        <time>2012-03-11T09:41:51Z</time>
      </trkpt>
      <trkpt lat="43.17923" lon="2.54001">
        <ele>104.446</ele>
        <time>2012-03-11T09:42:46Z</time>
      </trkpt>
      <trkpt lat="43.17912" lon="2.53983">
        <ele>99.493</ele>
        <time>2012-03-11T09:42:52Z</time>
      </trkpt>
      <trkpt lat="43.1791" lon="2.53979">
        <ele>99.213</ele>
        <time>2012-03-11T09:42:53Z</time>
      </trkpt>
      <trkpt lat="43.1789" lon="2.53946">
        <ele>95.696</ele>
        <time>2012-03-11T09:42:59Z</time>
      </trkpt>
      <trkpt lat="43.17862" lon="2.53899">
        <ele>92.907</ele>
        <time>2012-03-11T09:43:05Z</time>
      </trkpt>
      <trkpt lat="43.17837" lon="2.5388">
        <ele>93.493</ele>
        <time>2012-03-11T09:43:09Z</time>
      </trkpt>
      <trkpt lat="43.1783" lon="2.53876">
        <ele>93.079</ele>
        <time>2012-03-11T09:43:10Z</time>
      </trkpt>
      <trkpt lat="43.17791" lon="2.53863">
        <ele>91.964</ele>
        <time>2012-03-11T09:43:17Z</time>
      </trkpt>
      <trkpt lat="43.17757" lon="2.53855">
        <ele>95.211</ele>
        <time>2012-03-11T09:43:27Z</time>
      </trkpt>
      <trkpt lat="43.17739" lon="2.53853">
        <ele>96.203</ele>
        <time>2012-03-11T09:43:33Z</time>
      </trkpt>
      <trkpt lat="43.17721" lon="2.53881">
        <ele>96.969</ele>
        <time>2012-03-11T09:43:43Z</time>
      </trkpt>
      <trkpt lat="43.17705" lon="2.53924">
        <ele>100.804</ele>
        <time>2012-03-11T09:43:56Z</time>
      </trkpt>
      <trkpt lat="43.17703" lon="2.5393">
        <ele>101.563</ele>
        <time>2012-03-11T09:43:58Z</time>
      </trkpt>
      <trkpt lat="43.17674" lon="2.53983">
        <ele>104.741</ele>
        <time>2012-03-11T09:44:17Z</time>
      </trkpt>
      <trkpt lat="43.17646" lon="2.54058">
        <ele>107.761</ele>
        <time>2012-03-11T09:44:37Z</time>
      </trkpt>
      <trkpt lat="43.17644" lon="2.54062">
        <ele>107.894</ele>
        <time>2012-03-11T09:44:38Z</time>
      </trkpt>
      <trkpt lat="43.17625" lon="2.54129">
        <ele>110.393</ele>
        <time>2012-03-11T09:44:55Z</time>
      </trkpt>
      <trkpt lat="43.17606" lon="2.54212">
        <ele>112.194</ele>
        <time>2012-03-11T09:45:19Z</time>
      </trkpt>
      <trkpt lat="43.17595" lon="2.54261">
        <ele>115.52</ele>
        <time>2012-03-11T09:45:34Z</time>
      </trkpt>
      <trkpt lat="43.17583" lon="2.54314">
        <ele>118.686</ele>
        <time>2012-03-11T09:45:52Z</time>
      </trkpt>
      <trkpt lat="43.17562" lon="2.54369">
        <ele>122.875</ele>
        <time>2012-03-11T09:46:13Z</time>
      </trkpt>
      <trkpt lat="43.17561" lon="2.54371">
        <ele>122.449</ele>
        <time>2012-03-11T09:46:14Z</time>
      </trkpt>
      <trkpt lat="43.17548" lon="2.54419">
        <ele>124.455</ele>
        <time>2012-03-11T09:46:34Z</time>
      </trkpt>
      <trkpt lat="43.17558" lon="2.54474">
        <ele>124.107</ele>
        <time>2012-03-11T09:46:50Z</time>
      </trkpt>
      <trkpt lat="43.17575" lon="2.545">
        <ele>118.586</ele>
        <time>2012-03-11T09:46:56Z</time>
      </trkpt>
      <trkpt lat="43.17602" lon="2.54519">
        <ele>121.692</ele>
        <time>2012-03-11T09:47:01Z</time>
      </trkpt>
      <trkpt lat="43.17627" lon="2.54573">
        <ele>122.326</ele>
        <time>2012-03-11T09:47:09Z</time>
      </trkpt>
      <trkpt lat="43.17627" lon="2.54634">
        <ele>120.341</ele>
        <time>2012-03-11T09:47:18Z</time>
      </trkpt>
      <trkpt lat="43.17629" lon="2.54651">
        <ele>118.538</ele>
        <time>2012-03-11T09:47:21Z</time>
      </trkpt>
      <trkpt lat="43.17665" lon="2.54681">
        <ele>115.998</ele>
        <time>2012-03-11T09:47:28Z</time>
      </trkpt>
      <trkpt lat="43.1768" lon="2.54678">
        <ele>111.288</ele>
        <time>2012-03-11T09:47:30Z</time>
      </trkpt>
      <trkpt lat="43.17687" lon="2.54675">
        <ele>112.044</ele>
        <time>2012-03-11T09:47:31Z</time>
      </trkpt>
      <trkpt lat="43.17708" lon="2.54648">
        <ele>110.878</ele>
        <time>2012-03-11T09:47:35Z</time>
      </trkpt>
      <trkpt lat="43.17715" lon="2.54629">
        <ele>111.631</ele>
        <time>2012-03-11T09:47:37Z</time>
      </trkpt>
      <trkpt lat="43.17733" lon="2.54601">
        <ele>108.164</ele>
        <time>2012-03-11T09:47:41Z</time>
      </trkpt>
      <trkpt lat="43.1774" lon="2.54597">
        <ele>108.458</ele>
        <time>2012-03-11T09:47:42Z</time>
      </trkpt>
      <trkpt lat="43.17772" lon="2.5463">
        <ele>105.871</ele>
        <time>2012-03-11T09:47:47Z</time>
      </trkpt>
      <trkpt lat="43.17774" lon="2.54641">
        <ele>104.838</ele>
        <time>2012-03-11T09:47:48Z</time>
      </trkpt>
      <trkpt lat="43.17781" lon="2.54678">
        <ele>100.414</ele>
        <time>2012-03-11T09:47:51Z</time>
      </trkpt>
      <trkpt lat="43.17786" lon="2.54704">
        <ele>99.168</ele>
        <time>2012-03-11T09:47:53Z</time>
      </trkpt>
      <trkpt lat="43.178" lon="2.54771">
        <ele>97.453</ele>
        <time>2012-03-11T09:47:58Z</time>
      </trkpt>
      <trkpt lat="43.17821" lon="2.54877">
        <ele>94.4</ele>
        <time>2012-03-11T09:48:06Z</time>
      </trkpt>
      <trkpt lat="43.17844" lon="2.54972">
        <ele>97.678</ele>
        <time>2012-03-11T09:48:15Z</time>
      </trkpt>
      <trkpt lat="43.17848" lon="2.54986">
        <ele>98.678</ele>
        <time>2012-03-11T09:48:17Z</time>
      </trkpt>
      <trkpt lat="43.17872" lon="2.55089">
        <ele>97.771</ele>
        <time>2012-03-11T09:48:34Z</time>
      </trkpt>
      <trkpt lat="43.17884" lon="2.55141">
        <ele>100.942</ele>
        <time>2012-03-11T09:48:42Z</time>
      </trkpt>
      <trkpt lat="43.17913" lon="2.5525">
        <ele>97.825</ele>
        <time>2012-03-11T09:48:59Z</time>
      </trkpt>
      <trkpt lat="43.17917" lon="2.5527">
        <ele>97.112</ele>
        <time>2012-03-11T09:49:01Z</time>
      </trkpt>
      <trkpt lat="43.17946" lon="2.55417">
        <ele>96.647</ele>
        <time>2012-03-11T09:49:17Z</time>
      </trkpt>
      <trkpt lat="43.17949" lon="2.55432">
        <ele>95.631</ele>
        <time>2012-03-11T09:49:19Z</time>
      </trkpt>
      <trkpt lat="43.17971" lon="2.55584">
        <ele>96.926</ele>
        <time>2012-03-11T09:49:37Z</time>
      </trkpt>
      <trkpt lat="43.17975" lon="2.55629">
        <ele>96.594</ele>
        <time>2012-03-11T09:49:43Z</time>
      </trkpt>
      <trkpt lat="43.17964" lon="2.55621">
        <ele>96.825</ele>
        <time>2012-03-11T09:49:48Z</time>
      </trkpt>
      <trkpt lat="43.17932" lon="2.55608">
        <ele>98.396</ele>
        <time>2012-03-11T09:50:03Z</time>
      </trkpt>
      <trkpt lat="43.1793" lon="2.55607">
        <ele>98.692</ele>
        <time>2012-03-11T09:50:04Z</time>
      </trkpt>
      <trkpt lat="43.1788" lon="2.5559">
        <ele>100.323</ele>
        <time>2012-03-11T09:50:23Z</time>
      </trkpt>
      <trkpt lat="43.17877" lon="2.55589">
        <ele>100.619</ele>
        <time>2012-03-11T09:50:24Z</time>
      </trkpt>
      <trkpt lat="43.17832" lon="2.55562">
        <ele>102.906</ele>
        <time>2012-03-11T09:50:41Z</time>
      </trkpt>
      <trkpt lat="43.17805" lon="2.55554">
        <ele>104.946</ele>
        <time>2012-03-11T09:50:50Z</time>
      </trkpt>
      <trkpt lat="43.17799" lon="2.55553">
        <ele>102.934</ele>
        <time>2012-03-11T09:50:52Z</time>
      </trkpt>
      <trkpt lat="43.17745" lon="2.55534">
        <ele>103.133</ele>
        <time>2012-03-11T09:51:13Z</time>
      </trkpt>
      <trkpt lat="43.17727" lon="2.55526">
        <ele>105.269</ele>
        <time>2012-03-11T09:51:23Z</time>
      </trkpt>
      <trkpt lat="43.17701" lon="2.55514">
        <ele>110.015</ele>
        <time>2012-03-11T09:51:38Z</time>
      </trkpt>
      <trkpt lat="43.17699" lon="2.55513">
        <ele>109.874</ele>
        <time>2012-03-11T09:51:39Z</time>
      </trkpt>
      <trkpt lat="43.17686" lon="2.55507">
        <ele>110.07</ele>
        <time>2012-03-11T09:51:46Z</time>
      </trkpt>
      <trkpt lat="43.17656" lon="2.55494">
        <ele>113.448</ele>
        <time>2012-03-11T09:52:02Z</time>
      </trkpt>
      <trkpt lat="43.17637" lon="2.55486">
        <ele>116.787</ele>
        <time>2012-03-11T09:52:13Z</time>
      </trkpt>
      <trkpt lat="43.17601" lon="2.5547">
        <ele>118.458</ele>
        <time>2012-03-11T09:52:35Z</time>
      </trkpt>
      <trkpt lat="43.17589" lon="2.55465">
        <ele>119.792</ele>
        <time>2012-03-11T09:52:42Z</time>
      </trkpt>
      <trkpt lat="43.17559" lon="2.55452">
        <ele>119.726</ele>
        <time>2012-03-11T09:53:01Z</time>
      </trkpt>
      <trkpt lat="43.17531" lon="2.55434">
        <ele>123.05</ele>
        <time>2012-03-11T09:53:20Z</time>
      </trkpt>
      <trkpt lat="43.17529" lon="2.55433">
        <ele>123.743</ele>
        <time>2012-03-11T09:53:22Z</time>
      </trkpt>
      <trkpt lat="43.17543" lon="2.5546">
        <ele>124.017</ele>
        <time>2012-03-11T09:53:26Z</time>
      </trkpt>
      <trkpt lat="43.17541" lon="2.55464">
        <ele>123.174</ele>
        <time>2012-03-11T09:53:40Z</time>
      </trkpt>
      <trkpt lat="43.17541" lon="2.55464">
        <ele>123.41</ele>
        <time>2012-03-11T09:54:24Z</time>
      </trkpt>
      <trkpt lat="43.17541" lon="2.55464">
        <ele>122.506</ele>
        <time>2012-03-11T09:56:55Z</time>
      </trkpt>
      <trkpt lat="43.17541" lon="2.55464">
        <ele>122.58</ele>
        <time>2012-03-11T09:57:35Z</time>
      </trkpt>
      <trkpt lat="43.17532" lon="2.55435">
        <ele>122.526</ele>
        <time>2012-03-11T09:57:40Z</time>
      </trkpt>
      <trkpt lat="43.17539" lon="2.5544">
        <ele>119.59</ele>
        <time>2012-03-11T09:57:49Z</time>
      </trkpt>
      <trkpt lat="43.17543" lon="2.55442">
        <ele>119.212</ele>
        <time>2012-03-11T09:57:50Z</time>
      </trkpt>
      <trkpt lat="43.17571" lon="2.55457">
        <ele>114.686</ele>
        <time>2012-03-11T09:57:56Z</time>
      </trkpt>
      <trkpt lat="43.1762" lon="2.55478">
        <ele>111.524</ele>
        <time>2012-03-11T09:58:03Z</time>
      </trkpt>
      <trkpt lat="43.17627" lon="2.55482">
        <ele>111.517</ele>
        <time>2012-03-11T09:58:04Z</time>
      </trkpt>
      <trkpt lat="43.17644" lon="2.55489">
        <ele>106.578</ele>
        <time>2012-03-11T09:58:06Z</time>
      </trkpt>
      <trkpt lat="43.17661" lon="2.55496">
        <ele>103.528</ele>
        <time>2012-03-11T09:58:08Z</time>
      </trkpt>
      <trkpt lat="43.17697" lon="2.55512">
        <ele>99.282</ele>
        <time>2012-03-11T09:58:12Z</time>
      </trkpt>
      <trkpt lat="43.17706" lon="2.55516">
        <ele>99.347</ele>
        <time>2012-03-11T09:58:13Z</time>
      </trkpt>
      <trkpt lat="43.17755" lon="2.55539">
        <ele>95.678</ele>
        <time>2012-03-11T09:58:18Z</time>
      </trkpt>
      <trkpt lat="43.17774" lon="2.55548">
        <ele>92.29</ele>
        <time>2012-03-11T09:58:20Z</time>
      </trkpt>
      <trkpt lat="43.17811" lon="2.55554">
        <ele>92.04</ele>
        <time>2012-03-11T09:58:24Z</time>
      </trkpt>
      <trkpt lat="43.17841" lon="2.5557">
        <ele>95.81</ele>
        <time>2012-03-11T09:58:28Z</time>
      </trkpt>
      <trkpt lat="43.17873" lon="2.55588">
        <ele>96.417</ele>
        <time>2012-03-11T09:58:33Z</time>
      </trkpt>
      <trkpt lat="43.17905" lon="2.55599">
        <ele>96.972</ele>
        <time>2012-03-11T09:58:38Z</time>
      </trkpt>
      <trkpt lat="43.17926" lon="2.55606">
        <ele>93.685</ele>
        <time>2012-03-11T09:58:41Z</time>
      </trkpt>
      <trkpt lat="43.1797" lon="2.55624">
        <ele>95.667</ele>
        <time>2012-03-11T09:58:49Z</time>
      </trkpt>
      <trkpt lat="43.17975" lon="2.55616">
        <ele>90.325</ele>
        <time>2012-03-11T09:58:55Z</time>
      </trkpt>
      <trkpt lat="43.17975" lon="2.55612">
        <ele>89.92</ele>
        <time>2012-03-11T09:58:57Z</time>
      </trkpt>
      <trkpt lat="43.17975" lon="2.55608">
        <ele>83.794</ele>
        <time>2012-03-11T09:58:59Z</time>
      </trkpt>
      <trkpt lat="43.17975" lon="2.55605">
        <ele>85.887</ele>
        <time>2012-03-11T09:59:00Z</time>
      </trkpt>
      <trkpt lat="43.17974" lon="2.556">
        <ele>89.207</ele>
        <time>2012-03-11T09:59:02Z</time>
      </trkpt>
      <trkpt lat="43.17973" lon="2.55594">
        <ele>83.873</ele>
        <time>2012-03-11T09:59:04Z</time>
      </trkpt>
      <trkpt lat="43.17973" lon="2.55591">
        <ele>84.515</ele>
        <time>2012-03-11T09:59:05Z</time>
      </trkpt>
      <trkpt lat="43.17972" lon="2.55585">
        <ele>86.963</ele>
        <time>2012-03-11T09:59:07Z</time>
      </trkpt>
      <trkpt lat="43.1797" lon="2.55577">
        <ele>91.125</ele>
        <time>2012-03-11T09:59:09Z</time>
      </trkpt>
      <trkpt lat="43.17966" lon="2.55544">
        <ele>91.699</ele>
        <time>2012-03-11T09:59:18Z</time>
      </trkpt>
      <trkpt lat="43.17965" lon="2.55536">
        <ele>89.12</ele>
        <time>2012-03-11T09:59:20Z</time>
      </trkpt>
      <trkpt lat="43.17961" lon="2.55513">
        <ele>93.054</ele>
        <time>2012-03-11T09:59:26Z</time>
      </trkpt>
      <trkpt lat="43.17961" lon="2.55509">
        <ele>92.627</ele>
        <time>2012-03-11T09:59:27Z</time>
      </trkpt>
      <trkpt lat="43.17952" lon="2.55453">
        <ele>92.032</ele>
        <time>2012-03-11T09:59:41Z</time>
      </trkpt>
      <trkpt lat="43.17942" lon="2.5539">
        <ele>95.076</ele>
        <time>2012-03-11T09:59:56Z</time>
      </trkpt>
      <trkpt lat="43.17934" lon="2.55352">
        <ele>91.094</ele>
        <time>2012-03-11T10:00:05Z</time>
      </trkpt>
      <trkpt lat="43.17933" lon="2.55348">
        <ele>90.815</ele>
        <time>2012-03-11T10:00:06Z</time>
      </trkpt>
      <trkpt lat="43.17929" lon="2.55329">
        <ele>92.904</ele>
        <time>2012-03-11T10:00:11Z</time>
      </trkpt>
      <trkpt lat="43.17919" lon="2.55278">
        <ele>93.515</ele>
        <time>2012-03-11T10:00:24Z</time>
      </trkpt>
      <trkpt lat="43.17912" lon="2.55245">
        <ele>97.031</ele>
        <time>2012-03-11T10:00:33Z</time>
      </trkpt>
      <trkpt lat="43.17892" lon="2.55183">
        <ele>96.661</ele>
        <time>2012-03-11T10:00:54Z</time>
      </trkpt>
      <trkpt lat="43.17879" lon="2.5512">
        <ele>95.822</ele>
        <time>2012-03-11T10:01:09Z</time>
      </trkpt>
      <trkpt lat="43.17876" lon="2.55107">
        <ele>94.414</ele>
        <time>2012-03-11T10:01:12Z</time>
      </trkpt>
      <trkpt lat="43.1785" lon="2.54996">
        <ele>93.845</ele>
        <time>2012-03-11T10:01:36Z</time>
      </trkpt>
      <trkpt lat="43.17838" lon="2.54947">
        <ele>93.118</ele>
        <time>2012-03-11T10:01:47Z</time>
      </trkpt>
      <trkpt lat="43.17828" lon="2.54911">
        <ele>88.751</ele>
        <time>2012-03-11T10:01:53Z</time>
      </trkpt>
      <trkpt lat="43.17827" lon="2.54905">
        <ele>89.244</ele>
        <time>2012-03-11T10:01:54Z</time>
      </trkpt>
      <trkpt lat="43.17822" lon="2.54882">
        <ele>93.507</ele>
        <time>2012-03-11T10:01:59Z</time>
      </trkpt>
      <trkpt lat="43.17821" lon="2.54878">
        <ele>93.075</ele>
        <time>2012-03-11T10:02:00Z</time>
      </trkpt>
      <trkpt lat="43.1782" lon="2.54871">
        <ele>90.024</ele>
        <time>2012-03-11T10:02:02Z</time>
      </trkpt>
      <trkpt lat="43.17819" lon="2.54867">
        <ele>90.065</ele>
        <time>2012-03-11T10:02:03Z</time>
      </trkpt>
      <trkpt lat="43.17818" lon="2.5486">
        <ele>93.306</ele>
        <time>2012-03-11T10:02:05Z</time>
      </trkpt>
      <trkpt lat="43.17816" lon="2.54853">
        <ele>94.435</ele>
        <time>2012-03-11T10:02:07Z</time>
      </trkpt>
      <trkpt lat="43.17802" lon="2.54784">
        <ele>96.183</ele>
        <time>2012-03-11T10:02:28Z</time>
      </trkpt>
      <trkpt lat="43.17793" lon="2.54736">
        <ele>96.873</ele>
        <time>2012-03-11T10:02:44Z</time>
      </trkpt>
      <trkpt lat="43.17782" lon="2.5468">
        <ele>98.025</ele>
        <time>2012-03-11T10:03:04Z</time>
      </trkpt>
      <trkpt lat="43.17775" lon="2.54649">
        <ele>101.761</ele>
        <time>2012-03-11T10:03:17Z</time>
      </trkpt>
      <trkpt lat="43.17775" lon="2.54646">
        <ele>101.906</ele>
        <time>2012-03-11T10:03:18Z</time>
      </trkpt>
      <trkpt lat="43.1777" lon="2.54623">
        <ele>104.15</ele>
        <time>2012-03-11T10:03:28Z</time>
      </trkpt>
      <trkpt lat="43.17761" lon="2.54604">
        <ele>105.984</ele>
        <time>2012-03-11T10:03:37Z</time>
      </trkpt>
      <trkpt lat="43.1773" lon="2.54604">
        <ele>107.387</ele>
        <time>2012-03-11T10:03:55Z</time>
      </trkpt>
      <trkpt lat="43.17712" lon="2.54637">
        <ele>109.278</ele>
        <time>2012-03-11T10:04:12Z</time>
      </trkpt>
      <trkpt lat="43.17705" lon="2.54654">
        <ele>110.571</ele>
        <time>2012-03-11T10:04:20Z</time>
      </trkpt>
      <trkpt lat="43.17678" lon="2.54679">
        <ele>114.089</ele>
        <time>2012-03-11T10:04:38Z</time>
      </trkpt>
      <trkpt lat="43.17644" lon="2.54671">
        <ele>115.394</ele>
        <time>2012-03-11T10:04:57Z</time>
      </trkpt>
      <trkpt lat="43.17632" lon="2.54657">
        <ele>117.748</ele>
        <time>2012-03-11T10:05:06Z</time>
      </trkpt>
      <trkpt lat="43.17627" lon="2.54619">
        <ele>119.407</ele>
        <time>2012-03-11T10:05:23Z</time>
      </trkpt>
      <trkpt lat="43.17627" lon="2.54569">
        <ele>119.221</ele>
        <time>2012-03-11T10:05:41Z</time>
      </trkpt>
      <trkpt lat="43.17607" lon="2.54521">
        <ele>120.005</ele>
        <time>2012-03-11T10:05:57Z</time>
      </trkpt>
      <trkpt lat="43.17563" lon="2.54482">
        <ele>120.866</ele>
        <time>2012-03-11T10:06:16Z</time>
      </trkpt>
      <trkpt lat="43.17548" lon="2.54412">
        <ele>121.198</ele>
        <time>2012-03-11T10:06:36Z</time>
      </trkpt>
      <trkpt lat="43.17553" lon="2.54387">
        <ele>119.634</ele>
        <time>2012-03-11T10:06:41Z</time>
      </trkpt>
      <trkpt lat="43.17568" lon="2.54356">
        <ele>114.85</ele>
        <time>2012-03-11T10:06:46Z</time>
      </trkpt>
      <trkpt lat="43.17571" lon="2.54349">
        <ele>115.571</ele>
        <time>2012-03-11T10:06:47Z</time>
      </trkpt>
      <trkpt lat="43.17583" lon="2.54315">
        <ele>111.338</ele>
        <time>2012-03-11T10:06:51Z</time>
      </trkpt>
      <trkpt lat="43.17593" lon="2.54269">
        <ele>105.983</ele>
        <time>2012-03-11T10:06:56Z</time>
      </trkpt>
      <trkpt lat="43.17595" lon="2.5426">
        <ele>107.053</ele>
        <time>2012-03-11T10:06:57Z</time>
      </trkpt>
      <trkpt lat="43.17613" lon="2.54182">
        <ele>101.564</ele>
        <time>2012-03-11T10:07:05Z</time>
      </trkpt>
      <trkpt lat="43.17616" lon="2.54173">
        <ele>105.262</ele>
        <time>2012-03-11T10:07:06Z</time>
      </trkpt>
      <trkpt lat="43.17618" lon="2.54163">
        <ele>102.2</ele>
        <time>2012-03-11T10:07:07Z</time>
      </trkpt>
      <trkpt lat="43.17658" lon="2.54019">
        <ele>98.727</ele>
        <time>2012-03-11T10:07:24Z</time>
      </trkpt>
      <trkpt lat="43.17676" lon="2.53976">
        <ele>97.899</ele>
        <time>2012-03-11T10:07:30Z</time>
      </trkpt>
      <trkpt lat="43.1769" lon="2.53951">
        <ele>96.15</ele>
        <time>2012-03-11T10:07:34Z</time>
      </trkpt>
      <trkpt lat="43.17705" lon="2.53924">
        <ele>93.96</ele>
        <time>2012-03-11T10:07:38Z</time>
      </trkpt>
      <trkpt lat="43.17709" lon="2.53916">
        <ele>94.04</ele>
        <time>2012-03-11T10:07:39Z</time>
      </trkpt>
      <trkpt lat="43.17723" lon="2.53875">
        <ele>90.8</ele>
        <time>2012-03-11T10:07:44Z</time>
      </trkpt>
      <trkpt lat="43.17726" lon="2.53867">
        <ele>91.206</ele>
        <time>2012-03-11T10:07:45Z</time>
      </trkpt>
      <trkpt lat="43.17735" lon="2.53843">
        <ele>94.413</ele>
        <time>2012-03-11T10:07:48Z</time>
      </trkpt>
      <trkpt lat="43.17741" lon="2.538">
        <ele>91.815</ele>
        <time>2012-03-11T10:07:54Z</time>
      </trkpt>
      <trkpt lat="43.17743" lon="2.53787">
        <ele>94.519</ele>
        <time>2012-03-11T10:07:56Z</time>
      </trkpt>
      <trkpt lat="43.1775" lon="2.53771">
        <ele>96.385</ele>
        <time>2012-03-11T10:07:59Z</time>
      </trkpt>
      <trkpt lat="43.17764" lon="2.53727">
        <ele>97.444</ele>
        <time>2012-03-11T10:08:07Z</time>
      </trkpt>
      <trkpt lat="43.17769" lon="2.53709">
        <ele>96.209</ele>
        <time>2012-03-11T10:08:10Z</time>
      </trkpt>
      <trkpt lat="43.17779" lon="2.53668">
        <ele>96.694</ele>
        <time>2012-03-11T10:08:18Z</time>
      </trkpt>
      <trkpt lat="43.17784" lon="2.53642">
        <ele>92.937</ele>
        <time>2012-03-11T10:08:24Z</time>
      </trkpt>
      <trkpt lat="43.17787" lon="2.53625">
        <ele>91.724</ele>
        <time>2012-03-11T10:08:28Z</time>
      </trkpt>
      <trkpt lat="43.17789" lon="2.53613">
        <ele>93.387</ele>
        <time>2012-03-11T10:08:31Z</time>
      </trkpt>
      <trkpt lat="43.17798" lon="2.53565">
        <ele>96.825</ele>
        <time>2012-03-11T10:08:47Z</time>
      </trkpt>
      <trkpt lat="43.17808" lon="2.53512">
        <ele>97.861</ele>
        <time>2012-03-11T10:09:08Z</time>
      </trkpt>
      <trkpt lat="43.17809" lon="2.53509">
        <ele>102.026</ele>
        <time>2012-03-11T10:09:09Z</time>
      </trkpt>
      <trkpt lat="43.17809" lon="2.53507">
        <ele>101.863</ele>
        <time>2012-03-11T10:09:10Z</time>
      </trkpt>
      <trkpt lat="43.17811" lon="2.53499">
        <ele>98.726</ele>
        <time>2012-03-11T10:09:13Z</time>
      </trkpt>
      <trkpt lat="43.17814" lon="2.53483">
        <ele>100.485</ele>
        <time>2012-03-11T10:09:19Z</time>
      </trkpt>
      <trkpt lat="43.17825" lon="2.53444">
        <ele>100.896</ele>
        <time>2012-03-11T10:09:35Z</time>
      </trkpt>
      <trkpt lat="43.17831" lon="2.5342">
        <ele>103.915</ele>
        <time>2012-03-11T10:09:45Z</time>
      </trkpt>
      <trkpt lat="43.17854" lon="2.53354">
        <ele>103.084</ele>
        <time>2012-03-11T10:10:06Z</time>
      </trkpt>
      <trkpt lat="43.17874" lon="2.53273">
        <ele>100.928</ele>
        <time>2012-03-11T10:10:25Z</time>
      </trkpt>
      <trkpt lat="43.17877" lon="2.53258">
        <ele>104.126</ele>
        <time>2012-03-11T10:10:29Z</time>
      </trkpt>
      <trkpt lat="43.17878" lon="2.53254">
        <ele>103.925</ele>
        <time>2012-03-11T10:10:30Z</time>
      </trkpt>
      <trkpt lat="43.17906" lon="2.53176">
        <ele>105.133</ele>
        <time>2012-03-11T10:10:52Z</time>
      </trkpt>
      <trkpt lat="43.17917" lon="2.53166">
        <ele>101.213</ele>
        <time>2012-03-11T10:10:56Z</time>
      </trkpt>
      <trkpt lat="43.17938" lon="2.53109">
        <ele>100.9</ele>
        <time>2012-03-11T10:11:10Z</time>
      </trkpt>
      <trkpt lat="43.17941" lon="2.53093">
        <ele>104.217</ele>
        <time>2012-03-11T10:11:14Z</time>
      </trkpt>
      <trkpt lat="43.17944" lon="2.53062">
        <ele>100.312</ele>
        <time>2012-03-11T10:11:21Z</time>
      </trkpt>
      <trkpt lat="43.17946" lon="2.53035">
        <ele>104.749</ele>
        <time>2012-03-11T10:11:27Z</time>
      </trkpt>
      <trkpt lat="43.17947" lon="2.53026">
        <ele>105.688</ele>
        <time>2012-03-11T10:11:29Z</time>
      </trkpt>
      <trkpt lat="43.17947" lon="2.52987">
        <ele>102.863</ele>
        <time>2012-03-11T10:11:37Z</time>
      </trkpt>
      <trkpt lat="43.17947" lon="2.52956">
        <ele>100.012</ele>
        <time>2012-03-11T10:11:45Z</time>
      </trkpt>
      <trkpt lat="43.17947" lon="2.5294">
        <ele>96.893</ele>
        <time>2012-03-11T10:11:48Z</time>
      </trkpt>
      <trkpt lat="43.17945" lon="2.52893">
        <ele>99.364</ele>
        <time>2012-03-11T10:12:00Z</time>
      </trkpt>
      <trkpt lat="43.17946" lon="2.52871">
        <ele>97.345</ele>
        <time>2012-03-11T10:12:08Z</time>
      </trkpt>
      <trkpt lat="43.17947" lon="2.52865">
        <ele>98.68</ele>
        <time>2012-03-11T10:12:10Z</time>
      </trkpt>
      <trkpt lat="43.17949" lon="2.528">
        <ele>96.418</ele>
        <time>2012-03-11T10:12:27Z</time>
      </trkpt>
      <trkpt lat="43.17962" lon="2.52714">
        <ele>95.642</ele>
        <time>2012-03-11T10:12:48Z</time>
      </trkpt>
      <trkpt lat="43.17967" lon="2.52698">
        <ele>95.391</ele>
        <time>2012-03-11T10:12:52Z</time>
      </trkpt>
      <trkpt lat="43.17973" lon="2.52677">
        <ele>95.227</ele>
        <time>2012-03-11T10:12:57Z</time>
      </trkpt>
      <trkpt lat="43.17985" lon="2.52625">
        <ele>93.894</ele>
        <time>2012-03-11T10:13:10Z</time>
      </trkpt>
      <trkpt lat="43.17991" lon="2.5258">
        <ele>97.116</ele>
        <time>2012-03-11T10:13:23Z</time>
      </trkpt>
      <trkpt lat="43.1799" lon="2.52571">
        <ele>98.67</ele>
        <time>2012-03-11T10:13:26Z</time>
      </trkpt>
      <trkpt lat="43.17988" lon="2.52526">
        <ele>99.011</ele>
        <time>2012-03-11T10:13:41Z</time>
      </trkpt>
      <trkpt lat="43.17984" lon="2.52495">
        <ele>100.381</ele>
        <time>2012-03-11T10:13:51Z</time>
      </trkpt>
      <trkpt lat="43.17981" lon="2.52472">
        <ele>99.046</ele>
        <time>2012-03-11T10:13:59Z</time>
      </trkpt>
      <trkpt lat="43.17985" lon="2.52463">
        <ele>95.024</ele>
        <time>2012-03-11T10:14:02Z</time>
      </trkpt>
      <trkpt lat="43.17985" lon="2.52429">
        <ele>92.419</ele>
        <time>2012-03-11T10:14:14Z</time>
      </trkpt>
      <trkpt lat="43.17984" lon="2.52423">
        <ele>96.409</ele>
        <time>2012-03-11T10:14:16Z</time>
      </trkpt>
      <trkpt lat="43.17983" lon="2.52407">
        <ele>100.144</ele>
        <time>2012-03-11T10:14:21Z</time>
      </trkpt>
      <trkpt lat="43.17982" lon="2.52393">
        <ele>96.823</ele>
        <time>2012-03-11T10:14:26Z</time>
      </trkpt>
      <trkpt lat="43.17982" lon="2.52387">
        <ele>96.044</ele>
        <time>2012-03-11T10:14:28Z</time>
      </trkpt>
      <trkpt lat="43.17981" lon="2.52384">
        <ele>99.218</ele>
        <time>2012-03-11T10:14:29Z</time>
      </trkpt>
      <trkpt lat="43.17982" lon="2.52381">
        <ele>93.979</ele>
        <time>2012-03-11T10:14:30Z</time>
      </trkpt>
      <trkpt lat="43.17982" lon="2.52378">
        <ele>97.016</ele>
        <time>2012-03-11T10:14:31Z</time>
      </trkpt>
      <trkpt lat="43.17982" lon="2.52373">
        <ele>97.881</ele>
        <time>2012-03-11T10:14:33Z</time>
      </trkpt>
      <trkpt lat="43.17981" lon="2.52365">
        <ele>96.235</ele>
        <time>2012-03-11T10:14:36Z</time>
      </trkpt>
      <trkpt lat="43.1798" lon="2.52339">
        <ele>99.238</ele>
        <time>2012-03-11T10:14:46Z</time>
      </trkpt>
      <trkpt lat="43.1798" lon="2.52334">
        <ele>100.462</ele>
        <time>2012-03-11T10:14:48Z</time>
      </trkpt>
      <trkpt lat="43.17982" lon="2.52294">
        <ele>100.056</ele>
        <time>2012-03-11T10:15:04Z</time>
      </trkpt>
      <trkpt lat="43.17982" lon="2.52289">
        <ele>101.574</ele>
        <time>2012-03-11T10:15:06Z</time>
      </trkpt>
      <trkpt lat="43.17987" lon="2.52239">
        <ele>102.446</ele>
        <time>2012-03-11T10:15:25Z</time>
      </trkpt>
      <trkpt lat="43.17989" lon="2.52211">
        <ele>103.76</ele>
        <time>2012-03-11T10:15:36Z</time>
      </trkpt>
      <trkpt lat="43.17993" lon="2.52166">
        <ele>105.797</ele>
        <time>2012-03-11T10:15:53Z</time>
      </trkpt>
      <trkpt lat="43.1799" lon="2.5216">
        <ele>108.449</ele>
        <time>2012-03-11T10:15:57Z</time>
      </trkpt>
      <trkpt lat="43.17988" lon="2.5216">
        <ele>108.562</ele>
        <time>2012-03-11T10:15:58Z</time>
      </trkpt>
      <trkpt lat="43.17948" lon="2.52162">
        <ele>108.487</ele>
        <time>2012-03-11T10:16:16Z</time>
      </trkpt>
      <trkpt lat="43.17896" lon="2.52169">
        <ele>110.299</ele>
        <time>2012-03-11T10:16:37Z</time>
      </trkpt>
      <trkpt lat="43.17881" lon="2.52176">
        <ele>111.442</ele>
        <time>2012-03-11T10:16:44Z</time>
      </trkpt>
      <trkpt lat="43.17877" lon="2.52184">
        <ele>112.934</ele>
        <time>2012-03-11T10:16:47Z</time>
      </trkpt>
      <trkpt lat="43.17862" lon="2.5226">
        <ele>111.197</ele>
        <time>2012-03-11T10:17:06Z</time>
      </trkpt>
      <trkpt lat="43.17857" lon="2.52288">
        <ele>108.888</ele>
        <time>2012-03-11T10:17:10Z</time>
      </trkpt>
      <trkpt lat="43.17857" lon="2.52296">
        <ele>108.611</ele>
        <time>2012-03-11T10:17:11Z</time>
      </trkpt>
      <trkpt lat="43.17861" lon="2.52368">
        <ele>111.272</ele>
        <time>2012-03-11T10:17:24Z</time>
      </trkpt>
      <trkpt lat="43.17846" lon="2.524">
        <ele>112.427</ele>
        <time>2012-03-11T10:17:36Z</time>
      </trkpt>
      <trkpt lat="43.17807" lon="2.5243">
        <ele>112.865</ele>
        <time>2012-03-11T10:17:50Z</time>
      </trkpt>
      <trkpt lat="43.1778" lon="2.52455">
        <ele>113.838</ele>
        <time>2012-03-11T10:18:02Z</time>
      </trkpt>
      <trkpt lat="43.17749" lon="2.52482">
        <ele>116.889</ele>
        <time>2012-03-11T10:18:15Z</time>
      </trkpt>
      <trkpt lat="43.17716" lon="2.52504">
        <ele>113.941</ele>
        <time>2012-03-11T10:18:30Z</time>
      </trkpt>
      <trkpt lat="43.17712" lon="2.52504">
        <ele>115.288</ele>
        <time>2012-03-11T10:18:32Z</time>
      </trkpt>
      <trkpt lat="43.17695" lon="2.52507">
        <ele>118.336</ele>
        <time>2012-03-11T10:18:41Z</time>
      </trkpt>
      <trkpt lat="43.17671" lon="2.52512">
        <ele>121.48</ele>
        <time>2012-03-11T10:18:53Z</time>
      </trkpt>
      <trkpt lat="43.17639" lon="2.5251">
        <ele>124.63</ele>
        <time>2012-03-11T10:19:10Z</time>
      </trkpt>
      <trkpt lat="43.17629" lon="2.52514">
        <ele>126.131</ele>
        <time>2012-03-11T10:19:25Z</time>
      </trkpt>
      <trkpt lat="43.17629" lon="2.52564">
        <ele>128.419</ele>
        <time>2012-03-11T10:19:41Z</time>
      </trkpt>
      <trkpt lat="43.17619" lon="2.52599">
        <ele>128.167</ele>
        <time>2012-03-11T10:19:55Z</time>
      </trkpt>
      <trkpt lat="43.17627" lon="2.52632">
        <ele>130.271</ele>
        <time>2012-03-11T10:20:07Z</time>
      </trkpt>
      <trkpt lat="43.17629" lon="2.52674">
        <ele>131.656</ele>
        <time>2012-03-11T10:20:23Z</time>
      </trkpt>
      <trkpt lat="43.17626" lon="2.52735">
        <ele>131.849</ele>
        <time>2012-03-11T10:20:42Z</time>
      </trkpt>
      <trkpt lat="43.17638" lon="2.52768">
        <ele>131.416</ele>
        <time>2012-03-11T10:20:48Z</time>
      </trkpt>
      <trkpt lat="43.17628" lon="2.52825">
        <ele>129.15</ele>
        <time>2012-03-11T10:20:58Z</time>
      </trkpt>
      <trkpt lat="43.17628" lon="2.52836">
        <ele>128.246</ele>
        <time>2012-03-11T10:21:00Z</time>
      </trkpt>
      <trkpt lat="43.17621" lon="2.52838">
        <ele>129.314</ele>
        <time>2012-03-11T10:21:04Z</time>
      </trkpt>
      <trkpt lat="43.17586" lon="2.52812">
        <ele>126.404</ele>
        <time>2012-03-11T10:21:16Z</time>
      </trkpt>
      <trkpt lat="43.17584" lon="2.52809">
        <ele>126.199</ele>
        <time>2012-03-11T10:21:17Z</time>
      </trkpt>
      <trkpt lat="43.1757" lon="2.5279">
        <ele>121.885</ele>
        <time>2012-03-11T10:21:22Z</time>
      </trkpt>
      <trkpt lat="43.17567" lon="2.52786">
        <ele>122.926</ele>
        <time>2012-03-11T10:21:23Z</time>
      </trkpt>
      <trkpt lat="43.17535" lon="2.5275">
        <ele>126.295</ele>
        <time>2012-03-11T10:21:36Z</time>
      </trkpt>
      <trkpt lat="43.1753" lon="2.52728">
        <ele>122.619</ele>
        <time>2012-03-11T10:21:43Z</time>
      </trkpt>
      <trkpt lat="43.17529" lon="2.52724">
        <ele>126.165</ele>
        <time>2012-03-11T10:21:44Z</time>
      </trkpt>
      <trkpt lat="43.17528" lon="2.52718">
        <ele>127.792</ele>
        <time>2012-03-11T10:21:46Z</time>
      </trkpt>
      <trkpt lat="43.17527" lon="2.52708">
        <ele>125.672</ele>
        <time>2012-03-11T10:21:49Z</time>
      </trkpt>
      <trkpt lat="43.17523" lon="2.52697">
        <ele>123.815</ele>
        <time>2012-03-11T10:21:53Z</time>
      </trkpt>
      <trkpt lat="43.17521" lon="2.52689">
        <ele>127.716</ele>
        <time>2012-03-11T10:21:56Z</time>
      </trkpt>
      <trkpt lat="43.17498" lon="2.52641">
        <ele>128.681</ele>
        <time>2012-03-11T10:22:13Z</time>
      </trkpt>
      <trkpt lat="43.17493" lon="2.52633">
        <ele>131.683</ele>
        <time>2012-03-11T10:22:16Z</time>
      </trkpt>
      <trkpt lat="43.17491" lon="2.52631">
        <ele>130.428</ele>
        <time>2012-03-11T10:22:17Z</time>
      </trkpt>
      <trkpt lat="43.17469" lon="2.52603">
        <ele>130.739</ele>
        <time>2012-03-11T10:22:28Z</time>
      </trkpt>
      <trkpt lat="43.17458" lon="2.52586">
        <ele>128.267</ele>
        <time>2012-03-11T10:22:36Z</time>
      </trkpt>
      <trkpt lat="43.17453" lon="2.52574">
        <ele>127.98</ele>
        <time>2012-03-11T10:22:39Z</time>
      </trkpt>
      <trkpt lat="43.1743" lon="2.52567">
        <ele>126.74</ele>
        <time>2012-03-11T10:22:45Z</time>
      </trkpt>
      <trkpt lat="43.17409" lon="2.52559">
        <ele>123.502</ele>
        <time>2012-03-11T10:22:53Z</time>
      </trkpt>
      <trkpt lat="43.17403" lon="2.52571">
        <ele>120.994</ele>
        <time>2012-03-11T10:22:56Z</time>
      </trkpt>
      <trkpt lat="43.17392" lon="2.52593">
        <ele>121.707</ele>
        <time>2012-03-11T10:23:04Z</time>
      </trkpt>
      <trkpt lat="43.17399" lon="2.52608">
        <ele>122.854</ele>
        <time>2012-03-11T10:23:11Z</time>
      </trkpt>
      <trkpt lat="43.17417" lon="2.5265">
        <ele>121.894</ele>
        <time>2012-03-11T10:23:27Z</time>
      </trkpt>
      <trkpt lat="43.17418" lon="2.52652">
        <ele>122.062</ele>
        <time>2012-03-11T10:23:28Z</time>
      </trkpt>
      <trkpt lat="43.17438" lon="2.52692">
        <ele>122.771</ele>
        <time>2012-03-11T10:23:42Z</time>
      </trkpt>
      <trkpt lat="43.17441" lon="2.52695">
        <ele>122.46</ele>
        <time>2012-03-11T10:23:43Z</time>
      </trkpt>
      <trkpt lat="43.17452" lon="2.52711">
        <ele>120.475</ele>
        <time>2012-03-11T10:23:46Z</time>
      </trkpt>
      <trkpt lat="43.17456" lon="2.52719">
        <ele>120.053</ele>
        <time>2012-03-11T10:23:47Z</time>
      </trkpt>
      <trkpt lat="43.17466" lon="2.52758">
        <ele>119.584</ele>
        <time>2012-03-11T10:23:52Z</time>
      </trkpt>
      <trkpt lat="43.1748" lon="2.52764">
        <ele>119.88</ele>
        <time>2012-03-11T10:23:58Z</time>
      </trkpt>
      <trkpt lat="43.17514" lon="2.52723">
        <ele>121.079</ele>
        <time>2012-03-11T10:24:15Z</time>
      </trkpt>
      <trkpt lat="43.1751" lon="2.52689">
        <ele>122.177</ele>
        <time>2012-03-11T10:24:28Z</time>
      </trkpt>
      <trkpt lat="43.17499" lon="2.52661">
        <ele>122.723</ele>
        <time>2012-03-11T10:24:39Z</time>
      </trkpt>
      <trkpt lat="43.17495" lon="2.52652">
        <ele>125.93</ele>
        <time>2012-03-11T10:24:43Z</time>
      </trkpt>
      <trkpt lat="43.17491" lon="2.52646">
        <ele>124.571</ele>
        <time>2012-03-11T10:24:46Z</time>
      </trkpt>
      <trkpt lat="43.17474" lon="2.52617">
        <ele>127.864</ele>
        <time>2012-03-11T10:25:01Z</time>
      </trkpt>
      <trkpt lat="43.17462" lon="2.52595">
        <ele>129.921</ele>
        <time>2012-03-11T10:25:19Z</time>
      </trkpt>
      <trkpt lat="43.17442" lon="2.52535">
        <ele>128.874</ele>
        <time>2012-03-11T10:25:36Z</time>
      </trkpt>
      <trkpt lat="43.17445" lon="2.5253">
        <ele>132.084</ele>
        <time>2012-03-11T10:25:39Z</time>
      </trkpt>
      <trkpt lat="43.17448" lon="2.52524">
        <ele>128.828</ele>
        <time>2012-03-11T10:25:42Z</time>
      </trkpt>
      <trkpt lat="43.17449" lon="2.52522">
        <ele>129.125</ele>
        <time>2012-03-11T10:25:43Z</time>
      </trkpt>
      <trkpt lat="43.17451" lon="2.5251">
        <ele>132.8</ele>
        <time>2012-03-11T10:25:48Z</time>
      </trkpt>
      <trkpt lat="43.17452" lon="2.52474">
        <ele>135.861</ele>
        <time>2012-03-11T10:26:06Z</time>
      </trkpt>
      <trkpt lat="43.17453" lon="2.52467">
        <ele>132.825</ele>
        <time>2012-03-11T10:26:09Z</time>
      </trkpt>
      <trkpt lat="43.17453" lon="2.52465">
        <ele>135.995</ele>
        <time>2012-03-11T10:26:10Z</time>
      </trkpt>
      <trkpt lat="43.17453" lon="2.52447">
        <ele>132.8</ele>
        <time>2012-03-11T10:26:18Z</time>
      </trkpt>
      <trkpt lat="43.17453" lon="2.52437">
        <ele>135.777</ele>
        <time>2012-03-11T10:26:23Z</time>
      </trkpt>
      <trkpt lat="43.17453" lon="2.52427">
        <ele>137.596</ele>
        <time>2012-03-11T10:26:28Z</time>
      </trkpt>
      <trkpt lat="43.17456" lon="2.52407">
        <ele>138.546</ele>
        <time>2012-03-11T10:26:38Z</time>
      </trkpt>
      <trkpt lat="43.1747" lon="2.52364">
        <ele>136.443</ele>
        <time>2012-03-11T10:26:55Z</time>
      </trkpt>
      <trkpt lat="43.17474" lon="2.52352">
        <ele>139.816</ele>
        <time>2012-03-11T10:27:00Z</time>
      </trkpt>
      <trkpt lat="43.17475" lon="2.52349">
        <ele>139.744</ele>
        <time>2012-03-11T10:27:01Z</time>
      </trkpt>
      <trkpt lat="43.17476" lon="2.52347">
        <ele>136.628</ele>
        <time>2012-03-11T10:27:02Z</time>
      </trkpt>
      <trkpt lat="43.17479" lon="2.52311">
        <ele>140.215</ele>
        <time>2012-03-11T10:27:15Z</time>
      </trkpt>
      <trkpt lat="43.17479" lon="2.52297">
        <ele>134.477</ele>
        <time>2012-03-11T10:27:20Z</time>
      </trkpt>
      <trkpt lat="43.17479" lon="2.52292">
        <ele>138.948</ele>
        <time>2012-03-11T10:27:22Z</time>
      </trkpt>
      <trkpt lat="43.17479" lon="2.52289">
        <ele>138.959</ele>
        <time>2012-03-11T10:27:23Z</time>
      </trkpt>
      <trkpt lat="43.1748" lon="2.52269">
        <ele>138.493</ele>
        <time>2012-03-11T10:27:31Z</time>
      </trkpt>
      <trkpt lat="43.17482" lon="2.52251">
        <ele>141.706</ele>
        <time>2012-03-11T10:27:39Z</time>
      </trkpt>
      <trkpt lat="43.175" lon="2.52209">
        <ele>141.939</ele>
        <time>2012-03-11T10:27:57Z</time>
      </trkpt>
      <trkpt lat="43.17518" lon="2.5218">
        <ele>142.258</ele>
        <time>2012-03-11T10:28:06Z</time>
      </trkpt>
      <trkpt lat="43.17522" lon="2.52172">
        <ele>141.059</ele>
        <time>2012-03-11T10:28:08Z</time>
      </trkpt>
      <trkpt lat="43.17534" lon="2.52151">
        <ele>140.643</ele>
        <time>2012-03-11T10:28:13Z</time>
      </trkpt>
      <trkpt lat="43.1755" lon="2.52107">
        <ele>136.627</ele>
        <time>2012-03-11T10:28:21Z</time>
      </trkpt>
      <trkpt lat="43.17553" lon="2.52096">
        <ele>139.666</ele>
        <time>2012-03-11T10:28:23Z</time>
      </trkpt>
      <trkpt lat="43.17557" lon="2.52087">
        <ele>137.226</ele>
        <time>2012-03-11T10:28:25Z</time>
      </trkpt>
      <trkpt lat="43.17574" lon="2.52061">
        <ele>137.084</ele>
        <time>2012-03-11T10:28:31Z</time>
      </trkpt>
      <trkpt lat="43.17579" lon="2.52051">
        <ele>133.527</ele>
        <time>2012-03-11T10:28:33Z</time>
      </trkpt>
      <trkpt lat="43.176" lon="2.51989">
        <ele>131.05</ele>
        <time>2012-03-11T10:28:45Z</time>
      </trkpt>
      <trkpt lat="43.17609" lon="2.51961">
        <ele>127.279</ele>
        <time>2012-03-11T10:28:49Z</time>
      </trkpt>
      <trkpt lat="43.17614" lon="2.51949">
        <ele>121.923</ele>
        <time>2012-03-11T10:28:51Z</time>
      </trkpt>
      <trkpt lat="43.17615" lon="2.51943">
        <ele>122.412</ele>
        <time>2012-03-11T10:28:52Z</time>
      </trkpt>
      <trkpt lat="43.17619" lon="2.51932">
        <ele>125.513</ele>
        <time>2012-03-11T10:28:55Z</time>
      </trkpt>
      <trkpt lat="43.17625" lon="2.51926">
        <ele>124.73</ele>
        <time>2012-03-11T10:28:57Z</time>
      </trkpt>
      <trkpt lat="43.17642" lon="2.51924">
        <ele>124.675</ele>
        <time>2012-03-11T10:29:01Z</time>
      </trkpt>
      <trkpt lat="43.17677" lon="2.51923">
        <ele>123.133</ele>
        <time>2012-03-11T10:29:08Z</time>
      </trkpt>
      <trkpt lat="43.177" lon="2.51921">
        <ele>123.438</ele>
        <time>2012-03-11T10:29:14Z</time>
      </trkpt>
      <trkpt lat="43.17726" lon="2.51918">
        <ele>122.803</ele>
        <time>2012-03-11T10:29:22Z</time>
      </trkpt>
      <trkpt lat="43.17731" lon="2.51912">
        <ele>120.454</ele>
        <time>2012-03-11T10:29:24Z</time>
      </trkpt>
      <trkpt lat="43.17734" lon="2.519">
        <ele>119.295</ele>
        <time>2012-03-11T10:29:26Z</time>
      </trkpt>
      <trkpt lat="43.17732" lon="2.5188">
        <ele>119.353</ele>
        <time>2012-03-11T10:29:30Z</time>
      </trkpt>
      <trkpt lat="43.17732" lon="2.51846">
        <ele>117.11</ele>
        <time>2012-03-11T10:29:35Z</time>
      </trkpt>
      <trkpt lat="43.17733" lon="2.51822">
        <ele>108.212</ele>
        <time>2012-03-11T10:29:38Z</time>
      </trkpt>
      <trkpt lat="43.17733" lon="2.51814">
        <ele>111.231</ele>
        <time>2012-03-11T10:29:39Z</time>
      </trkpt>
      <trkpt lat="43.17734" lon="2.51807">
        <ele>114.403</ele>
        <time>2012-03-11T10:29:40Z</time>
      </trkpt>
      <trkpt lat="43.17741" lon="2.51764">
        <ele>110.718</ele>
        <time>2012-03-11T10:29:46Z</time>
      </trkpt>
      <trkpt lat="43.17745" lon="2.51742">
        <ele>113.983</ele>
        <time>2012-03-11T10:29:50Z</time>
      </trkpt>
      <trkpt lat="43.17752" lon="2.5173">
        <ele>117.632</ele>
        <time>2012-03-11T10:29:57Z</time>
      </trkpt>
      <trkpt lat="43.17754" lon="2.51725">
        <ele>117.709</ele>
        <time>2012-03-11T10:29:58Z</time>
      </trkpt>
      <trkpt lat="43.17757" lon="2.5172">
        <ele>113.035</ele>
        <time>2012-03-11T10:30:00Z</time>
      </trkpt>
      <trkpt lat="43.17759" lon="2.51717">
        <ele>112.831</ele>
        <time>2012-03-11T10:30:01Z</time>
      </trkpt>
      <trkpt lat="43.17764" lon="2.51712">
        <ele>116.599</ele>
        <time>2012-03-11T10:30:03Z</time>
      </trkpt>
      <trkpt lat="43.17776" lon="2.51697">
        <ele>119.88</ele>
        <time>2012-03-11T10:30:09Z</time>
      </trkpt>
      <trkpt lat="43.17807" lon="2.51658">
        <ele>120.014</ele>
        <time>2012-03-11T10:30:26Z</time>
      </trkpt>
      <trkpt lat="43.17823" lon="2.51637">
        <ele>118.694</ele>
        <time>2012-03-11T10:30:33Z</time>
      </trkpt>
      <trkpt lat="43.17833" lon="2.51626">
        <ele>115.393</ele>
        <time>2012-03-11T10:30:37Z</time>
      </trkpt>
      <trkpt lat="43.17836" lon="2.51623">
        <ele>118.507</ele>
        <time>2012-03-11T10:30:38Z</time>
      </trkpt>
      <trkpt lat="43.17855" lon="2.51606">
        <ele>121.022</ele>
        <time>2012-03-11T10:30:45Z</time>
      </trkpt>
      <trkpt lat="43.17884" lon="2.51588">
        <ele>117.596</ele>
        <time>2012-03-11T10:30:53Z</time>
      </trkpt>
      <trkpt lat="43.17905" lon="2.51577">
        <ele>120.296</ele>
        <time>2012-03-11T10:30:58Z</time>
      </trkpt>
      <trkpt lat="43.17913" lon="2.51572">
        <ele>117.265</ele>
        <time>2012-03-11T10:31:00Z</time>
      </trkpt>
      <trkpt lat="43.17967" lon="2.51539">
        <ele>110.675</ele>
        <time>2012-03-11T10:31:11Z</time>
      </trkpt>
      <trkpt lat="43.17978" lon="2.51533">
        <ele>109.956</ele>
        <time>2012-03-11T10:31:13Z</time>
      </trkpt>
      <trkpt lat="43.17995" lon="2.51523">
        <ele>108.354</ele>
        <time>2012-03-11T10:31:16Z</time>
      </trkpt>
      <trkpt lat="43.18076" lon="2.51504">
        <ele>103.412</ele>
        <time>2012-03-11T10:31:28Z</time>
      </trkpt>
      <trkpt lat="43.18091" lon="2.51502">
        <ele>99.976</ele>
        <time>2012-03-11T10:31:30Z</time>
      </trkpt>
      <trkpt lat="43.18106" lon="2.51501">
        <ele>104.266</ele>
        <time>2012-03-11T10:31:32Z</time>
      </trkpt>
      <trkpt lat="43.18113" lon="2.51499">
        <ele>102.997</ele>
        <time>2012-03-11T10:31:33Z</time>
      </trkpt>
      <trkpt lat="43.18139" lon="2.51495">
        <ele>100.808</ele>
        <time>2012-03-11T10:31:38Z</time>
      </trkpt>
      <trkpt lat="43.18145" lon="2.51495">
        <ele>105.2</ele>
        <time>2012-03-11T10:31:40Z</time>
      </trkpt>
      <trkpt lat="43.18154" lon="2.51493">
        <ele>97.875</ele>
        <time>2012-03-11T10:31:44Z</time>
      </trkpt>
      <trkpt lat="43.18152" lon="2.5144">
        <ele>98.098</ele>
        <time>2012-03-11T10:31:52Z</time>
      </trkpt>
      <trkpt lat="43.18163" lon="2.51413">
        <ele>96.18</ele>
        <time>2012-03-11T10:31:58Z</time>
      </trkpt>
      <trkpt lat="43.18175" lon="2.51408">
        <ele>93.529</ele>
        <time>2012-03-11T10:32:03Z</time>
      </trkpt>
      <trkpt lat="43.18191" lon="2.51401">
        <ele>92.76</ele>
        <time>2012-03-11T10:32:06Z</time>
      </trkpt>
      <trkpt lat="43.18212" lon="2.51378">
        <ele>97.452</ele>
        <time>2012-03-11T10:32:11Z</time>
      </trkpt>
      <trkpt lat="43.18213" lon="2.51374">
        <ele>97.18</ele>
        <time>2012-03-11T10:32:12Z</time>
      </trkpt>
      <trkpt lat="43.18221" lon="2.51344">
        <ele>97.185</ele>
        <time>2012-03-11T10:32:26Z</time>
      </trkpt>
      <trkpt lat="43.18173" lon="2.51329">
        <ele>101.077</ele>
        <time>2012-03-11T10:32:31Z</time>
      </trkpt>
      <trkpt lat="43.18173" lon="2.51326">
        <ele>99.663</ele>
        <time>2012-03-11T10:32:32Z</time>
      </trkpt>
      <trkpt lat="43.18169" lon="2.51308">
        <ele>102.055</ele>
        <time>2012-03-11T10:32:40Z</time>
      </trkpt>
      <trkpt lat="43.18163" lon="2.51277">
        <ele>104.527</ele>
        <time>2012-03-11T10:32:52Z</time>
      </trkpt>
      <trkpt lat="43.18157" lon="2.51249">
        <ele>103.772</ele>
        <time>2012-03-11T10:33:03Z</time>
      </trkpt>
      <trkpt lat="43.18153" lon="2.51235">
        <ele>100.016</ele>
        <time>2012-03-11T10:33:07Z</time>
      </trkpt>
      <trkpt lat="43.18145" lon="2.51201">
        <ele>101.965</ele>
        <time>2012-03-11T10:33:15Z</time>
      </trkpt>
      <trkpt lat="43.18141" lon="2.51183">
        <ele>100.02</ele>
        <time>2012-03-11T10:33:22Z</time>
      </trkpt>
      <trkpt lat="43.18193" lon="2.51089">
        <ele>100.248</ele>
        <time>2012-03-11T10:33:40Z</time>
      </trkpt>
      <trkpt lat="43.18197" lon="2.51054">
        <ele>99.601</ele>
        <time>2012-03-11T10:33:50Z</time>
      </trkpt>
      <trkpt lat="43.18209" lon="2.51046">
        <ele>101.022</ele>
        <time>2012-03-11T10:33:55Z</time>
      </trkpt>
      <trkpt lat="43.18261" lon="2.51075">
        <ele>96.325</ele>
        <time>2012-03-11T10:34:09Z</time>
      </trkpt>
      <trkpt lat="43.1827" lon="2.5108">
        <ele>99.12</ele>
        <time>2012-03-11T10:34:12Z</time>
      </trkpt>
      <trkpt lat="43.18284" lon="2.51088">
        <ele>97.505</ele>
        <time>2012-03-11T10:34:16Z</time>
      </trkpt>
      <trkpt lat="43.1828" lon="2.51106">
        <ele>99.627</ele>
        <time>2012-03-11T10:34:20Z</time>
      </trkpt>
      <trkpt lat="43.1827" lon="2.51122">
        <ele>100.708</ele>
        <time>2012-03-11T10:34:25Z</time>
      </trkpt>
      <trkpt lat="43.18277" lon="2.51084">
        <ele>102.093</ele>
        <time>2012-03-11T10:34:36Z</time>
      </trkpt>
      <trkpt lat="43.18277" lon="2.51084">
        <ele>101.443</ele>
        <time>2012-03-11T10:34:42Z</time>
      </trkpt>
    </trkseg>
  </trk>
</gpx>